Hammon, Oklahoma
Current Conditions -  °F | °C
As of 3:55 PM on Saturday 25 Oct 2014 (Local Time) from KELK Reporting Station
Clear Clear  
Wind Chill: 88°   Ceiling: Unl
Heat Index: 88°   Visibility: 10mi
Dew Point: 57°   Wind: 14mph
Humidity: 35%   Direction: 200°SSW
Pressure: 30.09"   Gusts: 21mph
Location:  35.63°N, 99.38°W
Report Text: KELK 252055Z AUTO 20012G18KT 10SM CLR 31/14 A3009 RMK AO2
Loading
Personal Weather Stations






























Interactive Weather Map
Tropical Storm Tracking
New forecast layout! Learn more

10-Day Weather Forecast

Advertisements
Track Severe Weather on mobile